Time;durP1;ratioP1;P1;durP2;ratioP2;P2;SDS_P1;SDS_P2;PMS_P1;PMS_P2;Temp;Humidity;BMP_temperature;BMP_pressure;BME280_temperature;BME280_humidity;BME280_pressure;Samples;Min_cycle;Max_cycle;Signal;HPM_P1;HPM_P2
2022/10/24 00:00:53;;;;;;;9.68;3.65;;;;;;;;;;5093427;28;20172;-73
2022/10/24 00:03:19;;;;;;;6.38;3.50;;;;;;;;;;5097821;28;20211;-72
2022/10/24 00:05:46;;;;;;;9.95;3.60;;;;;;;;;;5098104;28;20183;-72
2022/10/24 00:08:13;;;;;;;8.05;3.60;;;;;;;;;;5099508;28;20203;-72
2022/10/24 00:10:44;;;;;;;7.20;3.40;;;;;;;;;;5102469;27;20211;-72
2022/10/24 00:13:11;;;;;;;9.00;3.20;;;;;;;;;;5091834;28;20207;-72
2022/10/24 00:15:37;;;;;;;13.07;4.10;;;;;;;;;;5092656;28;20222;-71
2022/10/24 00:18:03;;;;;;;10.80;3.67;;;;;;;;;;5092923;28;20257;-71
2022/10/24 00:20:29;;;;;;;11.88;3.47;;;;;;;;;;5096749;28;20188;-71
2022/10/24 00:22:54;;;;;;;6.30;3.58;;;;;;;;;;5091942;28;20191;-71
2022/10/24 00:25:19;;;;;;;6.78;3.30;;;;;;;;;;5095111;28;20184;-71
2022/10/24 00:27:45;;;;;;;13.18;3.95;;;;;;;;;;5093815;28;20320;-71
2022/10/24 00:30:11;;;;;;;10.23;3.42;;;;;;;;;;5097376;28;20292;-70
2022/10/24 00:32:36;;;;;;;12.00;3.40;;;;;;;;;;5089458;28;20203;-71
2022/10/24 00:35:02;;;;;;;9.90;3.20;;;;;;;;;;5098084;28;20178;-71
2022/10/24 00:37:27;;;;;;;10.27;3.45;;;;;;;;;;5091394;28;20179;-71
2022/10/24 00:39:53;;;;;;;10.20;3.45;;;;;;;;;;5089100;28;20183;-71
2022/10/24 00:42:18;;;;;;;7.05;3.50;;;;;;;;;;5091680;28;20184;-71
2022/10/24 00:44:47;;;;;;;7.68;3.45;;;;;;;;;;5093260;28;20283;-71
2022/10/24 00:47:20;;;;;;;9.77;3.63;;;;;;;;;;5092179;28;20192;-71
2022/10/24 00:49:48;;;;;;;7.93;3.47;;;;;;;;;;5094267;28;20227;-71
2022/10/24 00:52:18;;;;;;;9.45;3.50;;;;;;;;;;5096093;28;20183;-71
2022/10/24 00:54:45;;;;;;;7.20;3.38;;;;;;;;;;5095305;28;20182;-71
2022/10/24 00:57:17;;;;;;;10.85;4.03;;;;;;;;;;5092522;28;20240;-71
2022/10/24 00:59:45;;;;;;;12.63;4.22;;;;;;;;;;5092162;28;20172;-71
2022/10/24 01:02:11;;;;;;;7.88;3.85;;;;;;;;;;5093231;28;20254;-71
2022/10/24 01:04:36;;;;;;;7.38;3.10;;;;;;;;;;5095972;28;20549;-71
2022/10/24 01:07:16;;;;;;;11.80;3.72;;;;;;;;;;5092700;28;20187;-70
2022/10/24 01:10:09;;;;;;;13.43;3.75;;;;;;;;;;5099370;28;20207;-70
2022/10/24 01:13:05;;;;;;;11.57;4.10;;;;;;;;;;5098553;28;20258;-71
2022/10/24 01:15:45;;;;;;;11.98;4.50;;;;;;;;;;5096568;28;20691;-71
2022/10/24 01:18:19;;;;;;;9.35;3.50;;;;;;;;;;5100649;28;20275;-70
2022/10/24 01:21:04;;;;;;;10.95;4.05;;;;;;;;;;5097065;28;20176;-70
2022/10/24 01:23:45;;;;;;;12.02;3.63;;;;;;;;;;5098416;28;20191;-70
2022/10/24 01:26:58;;;;;;;12.77;3.83;;;;;;;;;;5096273;28;20179;-70
2022/10/24 01:29:49;;;;;;;11.32;4.30;;;;;;;;;;5098783;28;20583;-70
2022/10/24 01:32:33;;;;;;;15.98;4.85;;;;;;;;;;5095913;28;20238;-70
2022/10/24 01:35:26;;;;;;;10.40;4.35;;;;;;;;;;5096604;28;20180;-70
2022/10/24 01:38:00;;;;;;;11.15;4.15;;;;;;;;;;5098546;28;20532;-70
2022/10/24 01:40:44;;;;;;;12.95;4.15;;;;;;;;;;5096830;28;20183;-71
2022/10/24 01:43:12;;;;;;;11.75;3.33;;;;;;;;;;5099314;28;20206;-70
2022/10/24 01:45:42;;;;;;;12.73;4.30;;;;;;;;;;5097327;28;20211;-69
2022/10/24 01:48:12;;;;;;;11.32;3.55;;;;;;;;;;5096160;28;20184;-70
2022/10/24 01:50:38;;;;;;;11.48;3.22;;;;;;;;;;5097258;28;20200;-69
2022/10/24 01:53:06;;;;;;;12.10;3.45;;;;;;;;;;5098042;28;20643;-70
2022/10/24 01:55:32;;;;;;;11.93;3.30;;;;;;;;;;5097508;28;20194;-70
2022/10/24 01:57:57;;;;;;;12.90;3.10;;;;;;;;;;5095688;28;20207;-70
2022/10/24 02:00:23;;;;;;;11.70;3.30;;;;;;;;;;5097743;28;20651;-70
2022/10/24 02:02:54;;;;;;;10.05;3.00;;;;;;;;;;5091582;28;20192;-69
2022/10/24 02:05:27;;;;;;;7.85;2.65;;;;;;;;;;5099760;28;20631;-69
2022/10/24 02:07:56;;;;;;;9.70;2.50;;;;;;;;;;5093821;28;20180;-70
2022/10/24 02:10:27;;;;;;;10.20;2.88;;;;;;;;;;5100772;28;20199;-70
2022/10/24 02:12:57;;;;;;;8.85;2.55;;;;;;;;;;5094203;28;20470;-69
2022/10/24 02:15:33;;;;;;;10.38;2.50;;;;;;;;;;5098833;28;20529;-69
2022/10/24 02:17:59;;;;;;;8.80;2.70;;;;;;;;;;5098857;28;20183;-69
2022/10/24 02:20:32;;;;;;;6.43;2.58;;;;;;;;;;5096301;28;20274;-69
2022/10/24 02:23:09;;;;;;;12.95;3.25;;;;;;;;;;5098140;28;20361;-69
2022/10/24 02:25:37;;;;;;;10.45;3.00;;;;;;;;;;5093475;28;20206;-69
2022/10/24 02:28:10;;;;;;;12.07;2.90;;;;;;;;;;5094381;28;20176;-69
2022/10/24 02:30:46;;;;;;;9.98;2.55;;;;;;;;;;5094359;28;20256;-70
2022/10/24 02:33:13;;;;;;;12.85;3.30;;;;;;;;;;5099699;28;20200;-69
2022/10/24 02:35:40;;;;;;;7.53;2.92;;;;;;;;;;5097467;28;20416;-69
2022/10/24 02:38:14;;;;;;;13.90;2.80;;;;;;;;;;5095529;28;20300;-69
2022/10/24 02:40:42;;;;;;;8.40;2.72;;;;;;;;;;5099138;28;20179;-69
2022/10/24 02:43:09;;;;;;;7.10;2.70;;;;;;;;;;5094686;28;20274;-72
2022/10/24 02:45:35;;;;;;;5.05;2.35;;;;;;;;;;5100011;28;20647;-70
2022/10/24 02:48:05;;;;;;;7.85;2.85;;;;;;;;;;5098646;28;20286;-69
2022/10/24 02:50:31;;;;;;;7.40;2.47;;;;;;;;;;5098492;28;20691;-68
2022/10/24 02:52:57;;;;;;;9.75;2.28;;;;;;;;;;5094516;28;20266;-68
2022/10/24 02:55:22;;;;;;;5.28;2.42;;;;;;;;;;5094508;28;20223;-72
2022/10/24 02:57:48;;;;;;;5.93;2.30;;;;;;;;;;5093155;28;20312;-68
2022/10/24 03:00:13;;;;;;;7.18;2.50;;;;;;;;;;5097630;28;20214;-69
2022/10/24 03:02:39;;;;;;;7.85;2.50;;;;;;;;;;5094650;28;20168;-68
2022/10/24 03:05:04;;;;;;;10.18;2.20;;;;;;;;;;5096423;28;20535;-68
2022/10/24 03:07:30;;;;;;;6.50;2.28;;;;;;;;;;5098897;28;20176;-69
2022/10/24 03:09:55;;;;;;;4.40;1.95;;;;;;;;;;5096233;28;20199;-69
2022/10/24 03:12:21;;;;;;;3.33;1.73;;;;;;;;;;5096795;28;20208;-70
2022/10/24 03:14:47;;;;;;;10.68;2.03;;;;;;;;;;5097857;28;20180;-68
2022/10/24 03:17:12;;;;;;;5.18;1.80;;;;;;;;;;5099591;28;20639;-68
2022/10/24 03:19:37;;;;;;;7.47;2.13;;;;;;;;;;5091936;28;20173;-69
2022/10/24 03:22:03;;;;;;;11.85;2.00;;;;;;;;;;5095977;28;20296;-68
2022/10/24 03:24:28;;;;;;;6.97;1.92;;;;;;;;;;5096524;28;20553;-68
2022/10/24 03:26:54;;;;;;;5.28;1.77;;;;;;;;;;5094340;28;20176;-69
2022/10/24 03:29:19;;;;;;;5.40;2.00;;;;;;;;;;5095183;28;20253;-69
2022/10/24 03:31:45;;;;;;;6.07;1.92;;;;;;;;;;5098376;28;20211;-68
2022/10/24 03:34:10;;;;;;;5.60;2.00;;;;;;;;;;5093417;28;20179;-67
2022/10/24 03:36:36;;;;;;;4.13;1.70;;;;;;;;;;5096443;28;20678;-69
2022/10/24 03:39:01;;;;;;;9.75;1.80;;;;;;;;;;5096185;28;20182;-68
2022/10/24 03:41:27;;;;;;;4.32;2.00;;;;;;;;;;5099577;28;20576;-68
2022/10/24 03:43:52;;;;;;;6.75;1.90;;;;;;;;;;5093371;28;20671;-71
2022/10/24 03:46:17;;;;;;;6.10;2.00;;;;;;;;;;5094965;28;20613;-68
2022/10/24 03:48:43;;;;;;;7.57;1.80;;;;;;;;;;5095597;28;20185;-68
2022/10/24 03:51:08;;;;;;;5.93;2.00;;;;;;;;;;5095160;28;20203;-68
2022/10/24 03:53:34;;;;;;;10.48;2.13;;;;;;;;;;5091259;28;20176;-68
2022/10/24 03:55:59;;;;;;;7.68;2.00;;;;;;;;;;5093064;28;20211;-67
2022/10/24 03:58:25;;;;;;;5.65;1.80;;;;;;;;;;5093427;28;20275;-68
2022/10/24 04:00:51;;;;;;;5.47;1.52;;;;;;;;;;5093713;28;20591;-67
2022/10/24 04:03:16;;;;;;;8.18;2.45;;;;;;;;;;5094470;28;20179;-70
2022/10/24 04:05:42;;;;;;;4.68;1.63;;;;;;;;;;5096427;28;20183;-68
2022/10/24 04:08:07;;;;;;;7.75;1.83;;;;;;;;;;5097748;28;20224;-67
2022/10/24 04:10:33;;;;;;;11.40;1.88;;;;;;;;;;5095578;28;20286;-67
2022/10/24 04:12:58;;;;;;;6.13;1.60;;;;;;;;;;5095750;28;20199;-68
2022/10/24 04:15:23;;;;;;;4.05;1.88;;;;;;;;;;5096664;28;20187;-67
2022/10/24 04:17:49;;;;;;;4.18;1.77;;;;;;;;;;5093851;28;20179;-68
2022/10/24 04:20:18;;;;;;;9.88;1.77;;;;;;;;;;5090374;28;20233;-68
2022/10/24 04:22:44;;;;;;;6.20;1.85;;;;;;;;;;5093274;28;20184;-68
2022/10/24 04:25:10;;;;;;;9.32;1.70;;;;;;;;;;5093201;28;20274;-68
2022/10/24 04:27:39;;;;;;;4.63;1.70;;;;;;;;;;5091799;28;20279;-67
2022/10/24 04:30:06;;;;;;;6.63;1.60;;;;;;;;;;5093033;28;20230;-68
2022/10/24 04:32:31;;;;;;;8.40;1.80;;;;;;;;;;5089279;28;20269;-67
2022/10/24 04:34:57;;;;;;;9.43;1.80;;;;;;;;;;5093576;28;20183;-67
2022/10/24 04:37:22;;;;;;;7.95;1.63;;;;;;;;;;5092176;28;20179;-68
2022/10/24 04:39:47;;;;;;;5.07;1.60;;;;;;;;;;5089298;28;20176;-67
2022/10/24 04:42:12;;;;;;;6.28;1.90;;;;;;;;;;5093398;28;20337;-67
2022/10/24 04:44:38;;;;;;;6.97;1.52;;;;;;;;;;5100657;28;20642;-68
2022/10/24 04:47:03;;;;;;;7.60;1.67;;;;;;;;;;5100023;28;20180;-68
2022/10/24 04:49:29;;;;;;;5.45;1.90;;;;;;;;;;5097150;28;20203;-67
2022/10/24 04:51:54;;;;;;;8.32;1.65;;;;;;;;;;5096917;28;20184;-68
2022/10/24 04:54:19;;;;;;;13.48;1.73;;;;;;;;;;5101366;28;20187;-67
2022/10/24 04:56:44;;;;;;;4.07;1.35;;;;;;;;;;5099865;28;20190;-67
2022/10/24 04:59:10;;;;;;;3.95;1.55;;;;;;;;;;5094133;28;20221;-68
2022/10/24 05:01:35;;;;;;;5.60;1.80;;;;;;;;;;5097729;28;20175;-67
2022/10/24 05:04:01;;;;;;;7.68;1.60;;;;;;;;;;5098128;28;20210;-71
2022/10/24 05:06:26;;;;;;;9.55;2.00;;;;;;;;;;5094159;28;20187;-68
2022/10/24 05:08:52;;;;;;;7.57;1.58;;;;;;;;;;5099746;28;20179;-67
2022/10/24 05:11:17;;;;;;;9.07;1.98;;;;;;;;;;5104554;28;20320;-68
2022/10/24 05:13:42;;;;;;;6.78;1.55;;;;;;;;;;5100070;28;20176;-68
2022/10/24 05:16:08;;;;;;;8.35;1.83;;;;;;;;;;5100112;28;20192;-67
2022/10/24 05:18:33;;;;;;;4.07;1.50;;;;;;;;;;5099747;28;20218;-68
2022/10/24 05:20:59;;;;;;;9.23;1.92;;;;;;;;;;5097000;27;20179;-67
2022/10/24 05:23:26;;;;;;;3.45;1.60;;;;;;;;;;5094749;28;20382;-67
2022/10/24 05:25:52;;;;;;;7.72;1.70;;;;;;;;;;5094134;28;20192;-67
2022/10/24 05:28:17;;;;;;;6.78;2.15;;;;;;;;;;5088840;28;21800;-67
2022/10/24 05:30:43;;;;;;;9.32;1.77;;;;;;;;;;5095143;28;20204;-68
2022/10/24 05:33:08;;;;;;;5.22;1.50;;;;;;;;;;5095777;28;20291;-68
2022/10/24 05:35:34;;;;;;;7.70;1.50;;;;;;;;;;5091848;27;20219;-70
2022/10/24 05:37:59;;;;;;;7.25;1.85;;;;;;;;;;5094229;28;20410;-69
2022/10/24 05:40:25;;;;;;;5.10;1.42;;;;;;;;;;5093680;28;20180;-68
2022/10/24 05:42:51;;;;;;;6.10;1.70;;;;;;;;;;5100919;28;20215;-68
2022/10/24 05:45:17;;;;;;;12.88;2.10;;;;;;;;;;5098193;28;21288;-67
2022/10/24 05:47:42;;;;;;;11.27;1.67;;;;;;;;;;5098881;27;20214;-68
2022/10/24 05:50:08;;;;;;;7.75;1.77;;;;;;;;;;5095844;28;20207;-67
2022/10/24 05:52:35;;;;;;;8.43;1.90;;;;;;;;;;5102968;27;20211;-67
2022/10/24 05:55:04;;;;;;;7.80;1.48;;;;;;;;;;5094697;27;20621;-67
2022/10/24 05:57:30;;;;;;;9.23;1.40;;;;;;;;;;5092704;28;20249;-67
2022/10/24 05:59:56;;;;;;;5.22;1.63;;;;;;;;;;5088477;28;20186;-67
2022/10/24 06:02:21;;;;;;;8.02;1.50;;;;;;;;;;5091988;28;20675;-67
2022/10/24 06:04:47;;;;;;;7.50;1.60;;;;;;;;;;5094754;28;20244;-68
2022/10/24 06:07:13;;;;;;;3.90;1.58;;;;;;;;;;5088988;28;20231;-67
2022/10/24 06:09:41;;;;;;;6.15;1.15;;;;;;;;;;5088870;28;20687;-67
2022/10/24 06:12:08;;;;;;;4.90;1.30;;;;;;;;;;5091606;28;20760;-67
2022/10/24 06:14:35;;;;;;;3.30;1.00;;;;;;;;;;5089877;28;20182;-67
2022/10/24 06:17:00;;;;;;;3.42;1.33;;;;;;;;;;5094932;28;20280;-69
2022/10/24 06:19:25;;;;;;;7.30;1.40;;;;;;;;;;5092492;28;20259;-68
2022/10/24 06:21:51;;;;;;;7.07;1.20;;;;;;;;;;5093170;28;20203;-67
2022/10/24 06:24:16;;;;;;;7.75;1.30;;;;;;;;;;5093128;28;20215;-67
2022/10/24 06:26:42;;;;;;;8.25;1.58;;;;;;;;;;5092711;28;20198;-69
2022/10/24 06:29:07;;;;;;;5.95;1.30;;;;;;;;;;5098199;28;20231;-70
2022/10/24 06:31:34;;;;;;;6.07;1.40;;;;;;;;;;5090097;28;20412;-67
2022/10/24 06:34:00;;;;;;;7.85;1.17;;;;;;;;;;5092343;28;20793;-67
2022/10/24 06:36:25;;;;;;;5.13;1.25;;;;;;;;;;5095769;28;20210;-67
2022/10/24 06:38:53;;;;;;;4.53;1.30;;;;;;;;;;5099623;28;20601;-68
2022/10/24 06:41:18;;;;;;;6.93;1.38;;;;;;;;;;5101066;28;20184;-67
2022/10/24 06:43:43;;;;;;;6.45;1.30;;;;;;;;;;5095169;28;20184;-67
2022/10/24 06:46:11;;;;;;;8.57;1.40;;;;;;;;;;5092472;28;20183;-67
2022/10/24 06:48:37;;;;;;;9.68;1.23;;;;;;;;;;5102118;28;20639;-67
2022/10/24 06:51:03;;;;;;;7.20;1.60;;;;;;;;;;5092495;28;20223;-68
2022/10/24 06:53:28;;;;;;;8.05;1.65;;;;;;;;;;5091451;28;20196;-67
2022/10/24 06:55:54;;;;;;;6.05;1.42;;;;;;;;;;5094321;28;20539;-67
2022/10/24 06:58:19;;;;;;;7.90;1.38;;;;;;;;;;5099414;28;20266;-67
2022/10/24 07:00:44;;;;;;;5.55;1.30;;;;;;;;;;5090137;28;20212;-69
2022/10/24 07:03:14;;;;;;;8.32;1.40;;;;;;;;;;5090459;28;20183;-68
2022/10/24 07:05:39;;;;;;;8.85;2.00;;;;;;;;;;5096644;28;20176;-68
2022/10/24 07:08:05;;;;;;;9.23;1.60;;;;;;;;;;5092227;28;20594;-69
2022/10/24 07:10:30;;;;;;;6.13;1.30;;;;;;;;;;5091360;28;20195;-67
2022/10/24 07:12:55;;;;;;;7.55;1.50;;;;;;;;;;5088968;28;20184;-71
2022/10/24 07:15:21;;;;;;;4.57;1.17;;;;;;;;;;5088971;28;20199;-68
2022/10/24 07:17:46;;;;;;;9.63;1.40;;;;;;;;;;5090883;28;20703;-68
2022/10/24 07:20:13;;;;;;;5.78;1.48;;;;;;;;;;5088340;28;20172;-68
2022/10/24 07:22:39;;;;;;;7.20;1.30;;;;;;;;;;5088677;28;20720;-67
2022/10/24 07:25:05;;;;;;;3.03;1.25;;;;;;;;;;5090944;28;20259;-69
2022/10/24 07:27:31;;;;;;;3.40;1.20;;;;;;;;;;5090677;28;20691;-67
2022/10/24 07:29:56;;;;;;;7.00;1.50;;;;;;;;;;5096233;28;20235;-68
2022/10/24 07:32:22;;;;;;;10.73;1.50;;;;;;;;;;5096320;28;20558;-71
2022/10/24 07:34:47;;;;;;;4.97;1.20;;;;;;;;;;5094907;28;20184;-68
2022/10/24 07:37:14;;;;;;;6.35;1.23;;;;;;;;;;5091560;28;20172;-67
2022/10/24 07:39:39;;;;;;;4.93;1.30;;;;;;;;;;5090631;28;20270;-70
2022/10/24 07:42:05;;;;;;;5.75;0.95;;;;;;;;;;5088548;28;20226;-69
2022/10/24 07:44:30;;;;;;;7.57;1.35;;;;;;;;;;5091996;28;20192;-68
2022/10/24 07:46:55;;;;;;;8.25;1.20;;;;;;;;;;5093251;28;20183;-68
2022/10/24 07:49:21;;;;;;;5.28;0.88;;;;;;;;;;5093913;28;20192;-69
2022/10/24 07:51:46;;;;;;;7.88;1.02;;;;;;;;;;5096726;28;20180;-69
2022/10/24 07:54:12;;;;;;;5.22;1.40;;;;;;;;;;5088989;28;20546;-69
2022/10/24 07:56:37;;;;;;;7.68;1.58;;;;;;;;;;5089067;28;20176;-69
2022/10/24 07:59:02;;;;;;;8.45;1.15;;;;;;;;;;5098745;28;20515;-69
2022/10/24 08:01:28;;;;;;;9.60;1.65;;;;;;;;;;5090468;28;20288;-72
2022/10/24 08:03:54;;;;;;;10.05;1.40;;;;;;;;;;5099454;28;20262;-71
2022/10/24 08:06:27;;;;;;;8.50;1.70;;;;;;;;;;5100982;28;20179;-68
2022/10/24 08:08:53;;;;;;;9.43;1.30;;;;;;;;;;5094419;28;20280;-68
2022/10/24 08:11:21;;;;;;;6.35;1.42;;;;;;;;;;5089952;28;20238;-68
2022/10/24 08:13:47;;;;;;;9.18;1.48;;;;;;;;;;5088997;28;20503;-68
2022/10/24 08:16:15;;;;;;;9.25;1.40;;;;;;;;;;5091072;28;20604;-70
2022/10/24 08:18:41;;;;;;;9.10;1.80;;;;;;;;;;5091308;28;20195;-68
2022/10/24 08:21:09;;;;;;;8.45;1.83;;;;;;;;;;5095105;28;20184;-67
2022/10/24 08:23:36;;;;;;;13.68;1.40;;;;;;;;;;5093673;28;20651;-70
2022/10/24 08:26:07;;;;;;;8.77;1.23;;;;;;;;;;5088754;28;20191;-67
2022/10/24 08:28:32;;;;;;;7.85;1.40;;;;;;;;;;5088581;28;20228;-68
2022/10/24 08:31:01;;;;;;;5.90;1.33;;;;;;;;;;5068883;28;20315;-71
2022/10/24 08:33:28;;;;;;;6.95;1.33;;;;;;;;;;5071298;28;20204;-69
2022/10/24 08:35:57;;;;;;;8.70;1.42;;;;;;;;;;5069012;28;20625;-67
2022/10/24 08:38:22;;;;;;;8.63;1.20;;;;;;;;;;5070261;28;20268;-68
2022/10/24 08:40:48;;;;;;;7.38;1.40;;;;;;;;;;5067631;28;20263;-67
2022/10/24 08:43:15;;;;;;;5.28;1.52;;;;;;;;;;5071790;28;20180;-71
2022/10/24 08:46:00;;;;;;;8.85;1.23;;;;;;;;;;5069548;28;20652;-70
2022/10/24 08:48:30;;;;;;;13.13;1.80;;;;;;;;;;5069470;28;20243;-71
2022/10/24 08:51:08;;;;;;;10.32;1.45;;;;;;;;;;5069144;28;20592;-69
2022/10/24 08:53:33;;;;;;;10.98;1.40;;;;;;;;;;5083701;28;20267;-68
2022/10/24 08:56:00;;;;;;;7.97;1.30;;;;;;;;;;5069373;28;20267;-66
2022/10/24 08:58:35;;;;;;;10.32;1.80;;;;;;;;;;5071451;28;20291;-67
2022/10/24 09:01:26;;;;;;;9.65;1.95;;;;;;;;;;5067907;28;20199;-67
2022/10/24 09:03:52;;;;;;;7.80;1.58;;;;;;;;;;5073184;28;20184;-70
2022/10/24 09:06:27;;;;;;;8.38;1.38;;;;;;;;;;5073789;28;20191;-71
2022/10/24 09:09:01;;;;;;;6.07;1.00;;;;;;;;;;5079484;28;20191;-72
2022/10/24 09:11:49;;;;;;;11.63;1.77;;;;;;;;;;5070001;28;20599;-67
2022/10/24 09:14:25;;;;;;;5.50;1.35;;;;;;;;;;5079040;28;20181;-69
2022/10/24 09:17:11;;;;;;;9.43;1.35;;;;;;;;;;5073821;28;20604;-68
2022/10/24 09:19:37;;;;;;;6.00;1.70;;;;;;;;;;5082595;28;20180;-66
2022/10/24 09:22:05;;;;;;;9.43;1.15;;;;;;;;;;5067670;28;20247;-67
2022/10/24 09:24:56;;;;;;;6.40;1.65;;;;;;;;;;5080812;28;20601;-66
2022/10/24 09:27:28;;;;;;;6.88;1.27;;;;;;;;;;5065881;28;20264;-69
2022/10/24 09:29:55;;;;;;;8.95;1.13;;;;;;;;;;5083574;28;20224;-68
2022/10/24 09:32:25;;;;;;;6.47;1.30;;;;;;;;;;5083281;28;20388;-68
2022/10/24 09:34:51;;;;;;;6.47;2.05;;;;;;;;;;5077238;28;20757;-70
2022/10/24 09:37:32;;;;;;;7.07;1.40;;;;;;;;;;5079215;28;20411;-69
2022/10/24 09:40:17;;;;;;;9.45;1.50;;;;;;;;;;5075268;28;20176;-69
2022/10/24 09:42:48;;;;;;;7.00;1.42;;;;;;;;;;5070663;28;20180;-67
2022/10/24 09:45:28;;;;;;;8.05;1.27;;;;;;;;;;5074792;28;20656;-68
2022/10/24 09:48:00;;;;;;;8.05;1.75;;;;;;;;;;5085064;28;20234;-68
2022/10/24 09:50:26;;;;;;;10.27;1.33;;;;;;;;;;5074657;28;20189;-70
2022/10/24 09:52:55;;;;;;;10.98;1.55;;;;;;;;;;5079580;28;20303;-67
2022/10/24 09:55:23;;;;;;;10.65;1.90;;;;;;;;;;5082882;28;20244;-68
2022/10/24 09:57:54;;;;;;;7.15;1.38;;;;;;;;;;5070723;28;20188;-71
2022/10/24 10:00:30;;;;;;;7.50;1.33;;;;;;;;;;5079495;28;20203;-68
2022/10/24 10:03:18;;;;;;;11.65;1.77;;;;;;;;;;5073802;28;20655;-69
2022/10/24 10:06:01;;;;;;;7.50;1.48;;;;;;;;;;5070832;28;20188;-70
2022/10/24 10:08:33;;;;;;;8.32;1.38;;;;;;;;;;5073080;28;20553;-68
2022/10/24 10:11:08;;;;;;;7.78;1.50;;;;;;;;;;5072415;28;20633;-67
2022/10/24 10:13:44;;;;;;;9.57;1.42;;;;;;;;;;5072912;28;20244;-68
2022/10/24 10:16:21;;;;;;;10.80;1.40;;;;;;;;;;5074743;28;20252;-70
2022/10/24 10:18:47;;;;;;;6.53;1.58;;;;;;;;;;5077057;28;20172;-68
2022/10/24 10:21:14;;;;;;;5.88;0.98;;;;;;;;;;5072876;28;20173;-67
2022/10/24 10:23:45;;;;;;;6.03;1.23;;;;;;;;;;5072068;28;20232;-69
2022/10/24 10:26:42;;;;;;;9.73;1.83;;;;;;;;;;5073460;28;20246;-67
2022/10/24 10:29:19;;;;;;;7.60;1.50;;;;;;;;;;5070270;28;20236;-70
2022/10/24 10:31:57;;;;;;;6.97;1.38;;;;;;;;;;5069833;28;20203;-67
2022/10/24 10:34:36;;;;;;;5.70;0.80;;;;;;;;;;5072454;28;20182;-67
2022/10/24 10:37:24;;;;;;;6.75;1.10;;;;;;;;;;5072875;28;20191;-67
2022/10/24 10:40:00;;;;;;;6.90;1.30;;;;;;;;;;5072913;28;20664;-67
2022/10/24 10:42:50;;;;;;;4.75;0.90;;;;;;;;;;5074534;28;20180;-67
2022/10/24 10:45:33;;;;;;;6.43;0.98;;;;;;;;;;5074088;28;20173;-67
2022/10/24 10:48:25;;;;;;;8.27;1.60;;;;;;;;;;5070695;28;20184;-70
2022/10/24 10:51:02;;;;;;;4.32;1.00;;;;;;;;;;5072114;28;20288;-67
2022/10/24 10:53:45;;;;;;;5.90;1.23;;;;;;;;;;5070302;28;20208;-67
2022/10/24 10:56:29;;;;;;;5.15;1.75;;;;;;;;;;5070667;28;20250;-70
2022/10/24 10:59:14;;;;;;;5.30;1.27;;;;;;;;;;5072348;28;20385;-68
2022/10/24 11:01:43;;;;;;;6.70;1.00;;;;;;;;;;5077175;28;20180;-71
2022/10/24 11:04:21;;;;;;;4.82;1.20;;;;;;;;;;5073963;28;20275;-67
2022/10/24 11:07:16;;;;;;;8.20;1.00;;;;;;;;;;5074569;28;20183;-67
2022/10/24 11:09:48;;;;;;;7.25;1.35;;;;;;;;;;5072238;28;20200;-68
2022/10/24 11:12:29;;;;;;;3.90;1.05;;;;;;;;;;5070357;28;20192;-67
2022/10/24 11:15:01;;;;;;;4.85;0.90;;;;;;;;;;5068767;28;20187;-67
2022/10/24 11:17:43;;;;;;;6.93;1.40;;;;;;;;;;5079200;28;20541;-68
2022/10/24 11:20:29;;;;;;;5.00;1.00;;;;;;;;;;5071727;28;20176;-70
2022/10/24 11:22:58;;;;;;;6.28;1.33;;;;;;;;;;5072140;28;20667;-67
2022/10/24 11:25:41;;;;;;;12.25;5.75;;;;;;;;;;5071159;28;20188;-68
2022/10/24 11:28:18;;;;;;;5.00;1.45;;;;;;;;;;5068552;28;20177;-67
2022/10/24 11:30:50;;;;;;;10.55;1.33;;;;;;;;;;5070731;28;20188;-67
2022/10/24 11:33:20;;;;;;;3.92;0.85;;;;;;;;;;5071767;28;20287;-68
2022/10/24 11:36:12;;;;;;;5.60;1.05;;;;;;;;;;5073847;28;20216;-67
2022/10/24 11:38:57;;;;;;;7.07;1.30;;;;;;;;;;5070001;28;20181;-68
2022/10/24 11:41:47;;;;;;;4.30;1.10;;;;;;;;;;5069206;28;20176;-67
2022/10/24 11:44:40;;;;;;;3.88;0.90;;;;;;;;;;5072940;28;20371;-67
2022/10/24 11:47:51;;;;;;;5.25;1.17;;;;;;;;;;5070605;28;20183;-68
2022/10/24 11:50:41;;;;;;;5.28;1.00;;;;;;;;;;5072113;28;20196;-71
2022/10/24 11:53:09;;;;;;;5.72;0.90;;;;;;;;;;5068932;28;20173;-71
2022/10/24 11:55:40;;;;;;;3.90;0.80;;;;;;;;;;5073369;28;20188;-68
2022/10/24 11:58:13;;;;;;;5.95;1.27;;;;;;;;;;5073706;28;20215;-67
2022/10/24 12:01:03;;;;;;;3.55;0.90;;;;;;;;;;5075411;28;20633;-71
2022/10/24 12:03:58;;;;;;;6.97;1.40;;;;;;;;;;5077873;28;20234;-67
2022/10/24 12:06:37;;;;;;;6.50;1.23;;;;;;;;;;5077464;28;20655;-71
2022/10/24 12:09:09;;;;;;;3.40;0.80;;;;;;;;;;5075027;28;20175;-67
2022/10/24 12:12:02;;;;;;;5.32;0.60;;;;;;;;;;5069532;28;20204;-68
2022/10/24 12:14:34;;;;;;;6.22;1.02;;;;;;;;;;5070985;28;20606;-69
2022/10/24 12:17:28;;;;;;;7.80;1.05;;;;;;;;;;5088182;28;20259;-68
2022/10/24 12:19:54;;;;;;;3.63;0.77;;;;;;;;;;5073000;28;20574;-69
2022/10/24 12:22:30;;;;;;;4.30;1.02;;;;;;;;;;5077169;28;20175;-67
2022/10/24 12:25:31;;;;;;;3.65;0.90;;;;;;;;;;5080049;28;20206;-69
2022/10/24 12:28:17;;;;;;;2.53;0.68;;;;;;;;;;5078728;28;20204;-69
2022/10/24 12:30:42;;;;;;;2.60;0.80;;;;;;;;;;5068514;28;20601;-67
2022/10/24 12:33:24;;;;;;;4.85;0.80;;;;;;;;;;5067900;28;20197;-68
2022/10/24 12:35:56;;;;;;;6.22;0.70;;;;;;;;;;5072081;28;20181;-68
2022/10/24 12:38:28;;;;;;;8.95;1.05;;;;;;;;;;5072342;28;20264;-67
2022/10/24 12:41:13;;;;;;;4.47;1.20;;;;;;;;;;5072728;28;20565;-67
2022/10/24 12:43:43;;;;;;;3.72;0.73;;;;;;;;;;5070925;28;20183;-66
2022/10/24 12:46:14;;;;;;;2.72;0.75;;;;;;;;;;5072321;28;20267;-67
2022/10/24 12:48:43;;;;;;;5.32;1.00;;;;;;;;;;5070555;28;20188;-67
2022/10/24 12:51:29;;;;;;;6.47;1.08;;;;;;;;;;5070494;28;20350;-67
2022/10/24 12:54:13;;;;;;;4.65;0.60;;;;;;;;;;5070792;28;20179;-66
2022/10/24 12:56:51;;;;;;;5.88;0.90;;;;;;;;;;5067933;28;20177;-66
2022/10/24 12:59:23;;;;;;;5.75;0.93;;;;;;;;;;5070781;28;20181;-67
2022/10/24 13:02:06;;;;;;;5.55;0.80;;;;;;;;;;5068605;28;20694;-66
2022/10/24 13:04:51;;;;;;;4.10;0.80;;;;;;;;;;5072872;28;20489;-67
2022/10/24 13:07:43;;;;;;;11.85;4.82;;;;;;;;;;5070657;28;20189;-67
2022/10/24 13:10:29;;;;;;;4.07;0.80;;;;;;;;;;5073979;28;20199;-67
2022/10/24 13:13:23;;;;;;;2.97;0.80;;;;;;;;;;5071613;28;20181;-69
2022/10/24 13:16:12;;;;;;;3.20;0.90;;;;;;;;;;5070947;28;20299;-67
2022/10/24 13:18:50;;;;;;;5.78;0.93;;;;;;;;;;5071116;28;20187;-67
2022/10/24 13:21:30;;;;;;;4.15;1.38;;;;;;;;;;5075807;28;20180;-67
2022/10/24 13:24:15;;;;;;;5.93;1.50;;;;;;;;;;5071348;28;20200;-67
2022/10/24 13:26:47;;;;;;;3.58;1.40;;;;;;;;;;5070614;28;20608;-67
2022/10/24 13:29:42;;;;;;;2.67;0.75;;;;;;;;;;5072363;28;20239;-68
2022/10/24 13:32:11;;;;;;;2.58;0.80;;;;;;;;;;5073354;28;20216;-69
2022/10/24 13:34:49;;;;;;;3.47;1.23;;;;;;;;;;5079608;28;20241;-67
2022/10/24 13:37:27;;;;;;;3.17;0.93;;;;;;;;;;5073846;28;20271;-67
2022/10/24 13:40:06;;;;;;;8.65;1.65;;;;;;;;;;5072374;28;20177;-67
2022/10/24 13:42:35;;;;;;;4.28;1.10;;;;;;;;;;5073135;28;20275;-67
2022/10/24 13:45:15;;;;;;;5.95;1.05;;;;;;;;;;5074984;28;20183;-67
2022/10/24 13:47:43;;;;;;;5.22;1.38;;;;;;;;;;5073036;28;20199;-67
2022/10/24 13:50:19;;;;;;;8.07;1.10;;;;;;;;;;5070143;28;20199;-66
2022/10/24 13:52:52;;;;;;;4.25;1.10;;;;;;;;;;5073932;28;20540;-66
2022/10/24 13:55:46;;;;;;;7.18;1.30;;;;;;;;;;5075476;28;20188;-67
2022/10/24 13:58:17;;;;;;;9.23;1.30;;;;;;;;;;5075153;28;20680;-68
2022/10/24 14:00:48;;;;;;;7.30;1.17;;;;;;;;;;5076274;28;20176;-68
2022/10/24 14:03:16;;;;;;;6.20;1.20;;;;;;;;;;5072838;28;20250;-68
2022/10/24 14:05:52;;;;;;;5.90;1.50;;;;;;;;;;5075464;28;20188;-72
2022/10/24 14:08:25;;;;;;;4.88;1.73;;;;;;;;;;5073040;28;20238;-68
2022/10/24 14:10:52;;;;;;;7.13;1.50;;;;;;;;;;5077085;28;20322;-68
2022/10/24 14:13:19;;;;;;;9.02;1.75;;;;;;;;;;5074875;28;20670;-68
2022/10/24 14:15:51;;;;;;;9.68;2.00;;;;;;;;;;5071186;28;20173;-68
2022/10/24 14:18:19;;;;;;;6.63;1.63;;;;;;;;;;5069103;28;20703;-68
2022/10/24 14:20:54;;;;;;;6.47;2.33;;;;;;;;;;5073754;28;20173;-68
2022/10/24 14:23:35;;;;;;;3.85;1.40;;;;;;;;;;5072310;28;20176;-68
2022/10/24 14:26:05;;;;;;;10.60;1.55;;;;;;;;;;5072161;28;20558;-68
2022/10/24 14:28:37;;;;;;;12.23;1.67;;;;;;;;;;5071607;28;20656;-68
2022/10/24 14:31:17;;;;;;;5.88;1.48;;;;;;;;;;5071491;28;20212;-68
2022/10/24 14:33:46;;;;;;;7.18;2.10;;;;;;;;;;5070658;28;20175;-69
2022/10/24 14:36:13;;;;;;;8.82;1.98;;;;;;;;;;5072836;28;20189;-69
2022/10/24 14:38:38;;;;;;;5.47;1.60;;;;;;;;;;5073528;28;20189;-68
2022/10/24 14:41:09;;;;;;;8.57;1.60;;;;;;;;;;5071295;28;20189;-68
2022/10/24 14:43:39;;;;;;;4.97;1.38;;;;;;;;;;5070503;28;20177;-69
2022/10/24 14:46:11;;;;;;;9.23;2.15;;;;;;;;;;5072827;28;20197;-69
2022/10/24 14:48:42;;;;;;;11.55;1.90;;;;;;;;;;5072170;28;20675;-69
2022/10/24 14:51:33;;;;;;;10.27;1.80;;;;;;;;;;5072058;28;20201;-68
2022/10/24 14:54:00;;;;;;;8.68;2.50;;;;;;;;;;5073717;28;20567;-68
2022/10/24 14:56:32;;;;;;;7.85;2.20;;;;;;;;;;5071201;28;20212;-69
2022/10/24 14:59:00;;;;;;;8.68;2.80;;;;;;;;;;5073521;28;20191;-69
2022/10/24 15:01:26;;;;;;;5.28;1.50;;;;;;;;;;5071465;28;20181;-69
2022/10/24 15:03:55;;;;;;;7.60;1.40;;;;;;;;;;5073797;28;20651;-69
2022/10/24 15:06:43;;;;;;;5.55;1.65;;;;;;;;;;5073156;28;20540;-68